Artemis Vi — SX3828 — position and weather

sailwx.info

Track history (hours):
 
Tides and Currents Weather Stations Pressure Air Temp Water Temp Dewpoint Dewpoint Depression Visibility Wind Speed Wind Dir Waves Ship Positions

Artemis Vi

Last reported at 2018-Feb-17 18:01 UTC. Time now 2018-Feb-22 05:22 UTC.
Position N 38°15' E 022°42'.

Length 28 m; draft 3 m.

Type: Tug. MMSI: 237036400.

Date/timePositionNaut miles runAvg speedWind from/ knotsBaromVisibWave heightAir tempDewpointWater temp
2018-Feb-17 18:01N 38°15' E 022°42'0 8.0
2018-Feb-17 17:58N 38°14' E 022°42'6 8.1
2018-Feb-17 17:17N 38°09' E 022°45'2 8.3
2018-Feb-17 17:01N 38°07' E 022°46'4 8.3
2018-Feb-17 16:30N 38°03' E 022°49'4 8.2
2018-Feb-17 16:00N 38°00' E 022°52'4 7.9
2018-Feb-17 15:31N 37°57' E 022°55'1 1.8
2018-Feb-17 15:00N 37°57' E 022°56'0 0.2
2018-Feb-17 14:30N 37°57' E 022°56'0 0.0
2018-Feb-17 09:22N 37°57' E 022°56'0 0.0
2018-Feb-17 09:00N 37°57' E 022°56'0 0.0
2018-Feb-17 08:30N 37°57' E 022°56'0 0.0
2018-Feb-17 08:00N 37°57' E 022°56'0 0.0
2018-Feb-17 07:30N 37°57' E 022°56'0 0.0
2018-Feb-17 07:00N 37°57' E 022°56'0 0.0
2018-Feb-17 06:30N 37°57' E 022°56'0 0.0
2018-Feb-17 06:00N 37°57' E 022°56'0 0.0
2018-Feb-17 05:30N 37°57' E 022°56'0 0.0
2018-Feb-17 05:00N 37°57' E 022°56'0 0.0
2018-Feb-17 04:30N 37°57' E 022°56'0 0.0
2018-Feb-17 04:00N 37°57' E 022°56'0 0.0
2018-Feb-17 03:30N 37°57' E 022°56'0 0.0
2018-Feb-17 03:00N 37°57' E 022°56'0 0.0
2018-Feb-17 02:30N 37°57' E 022°56'0 0.0
2018-Feb-17 02:00N 37°57' E 022°56'0 0.0
2018-Feb-17 01:30N 37°57' E 022°56'0 0.0
2018-Feb-17 01:00N 37°57' E 022°56'0 0.0
2018-Feb-17 00:30N 37°57' E 022°56'0 0.0
2018-Feb-17 00:00N 37°57' E 022°56'0 0.0
2018-Feb-16 23:30N 37°57' E 022°56'0 0.0
2018-Feb-16 23:00N 37°57' E 022°56'0 0.0
2018-Feb-16 22:30N 37°57' E 022°56'0 0.0
2018-Feb-16 22:00N 37°57' E 022°56'0 0.0
2018-Feb-16 21:30N 37°57' E 022°56'0 0.0
2018-Feb-16 21:00N 37°57' E 022°56'0 0.0
2018-Feb-16 20:30N 37°57' E 022°56'0 0.0
2018-Feb-16 20:00N 37°57' E 022°56'0 0.0
2018-Feb-16 19:30N 37°57' E 022°56'0 0.0
2018-Feb-16 19:00N 37°57' E 022°56'0 0.0
2018-Feb-16 18:30N 37°57' E 022°56'0 0.0
2018-Feb-16 18:00N 37°57' E 022°56'0 0.0
2018-Feb-16 17:30N 37°57' E 022°56'0 0.0
2018-Feb-16 17:00N 37°57' E 022°56'0 0.0
2018-Feb-16 16:30N 37°57' E 022°56'0 0.0
2018-Feb-16 16:00N 37°57' E 022°56'0 0.0
2018-Feb-16 15:30N 37°57' E 022°56'0 0.0
2018-Feb-16 15:00N 37°57' E 022°56'0 0.0
2018-Feb-16 14:30N 37°57' E 022°56'0 0.2
2018-Feb-16 14:00N 37°57' E 022°56'0 0.1
2018-Feb-16 13:30N 37°57' E 022°56'0 0.0
2018-Feb-14 17:23N 37°57' E 022°56'0 0.0
2018-Feb-14 17:00N 37°57' E 022°56'3 5.7
2018-Feb-14 16:31N 37°58' E 022°53'4 7.9
2018-Feb-14 16:01N 37°60' E 022°48'3 5.0
2018-Feb-14 15:27N 38°01' E 022°45'0 0.0
2018-Feb-14 14:09N 38°01' E 022°45'1 4.7
2018-Feb-14 13:58N 38°00' E 022°46'3 6.5
2018-Feb-14 13:30N 37°59' E 022°49'3 6.4
2018-Feb-14 13:01N 37°58' E 022°53'3 0.1
2018-Feb-13 14:36N 37°57' E 022°56'0 2.6
2018-Feb-13 14:30N 37°57' E 022°56'0 0.4
2018-Feb-13 14:00N 37°57' E 022°56'0 0.1
2018-Feb-13 12:47N 37°57' E 022°56'0 0.0
2018-Feb-13 12:30N 37°57' E 022°56'3 6.7
2018-Feb-13 12:00N 37°59' E 022°53'9 6.3
2018-Feb-13 10:31N 38°08' E 022°57'0 7.7
2018-Feb-13 10:30N 38°08' E 022°57'4 0.7
2018-Feb-13 05:14N 38°12' E 022°59'1 0.1
2018-Feb-12 19:48N 38°12' E 022°58'2 6.0
2018-Feb-12 19:29N 38°11' E 022°57'6 7.3
2018-Feb-12 18:43N 38°06' E 022°52'3 7.3
2018-Feb-12 18:18N 38°05' E 022°49'2 6.9
2018-Feb-12 18:00N 38°03' E 022°47'3 5.2
2018-Feb-12 17:30N 38°01' E 022°45'0 0.0
2018-Feb-12 17:00N 38°01' E 022°45'1 1.2
2018-Feb-12 16:21N 38°01' E 022°46'1 2.1
2018-Feb-12 16:00N 38°01' E 022°45'3 6.1
2018-Feb-12 15:31N 37°60' E 022°49'3 6.9
2018-Feb-12 15:00N 37°58' E 022°52'3 6.5
2018-Feb-12 14:31N 37°57' E 022°56'0 0.2
2018-Feb-12 14:00N 37°57' E 022°56'1 1.6
2018-Feb-12 13:30N 37°57' E 022°56'1 1.4
2018-Feb-12 13:00N 37°57' E 022°56'0 0.0
2018-Feb-12 12:30N 37°57' E 022°56'0 0.0
2018-Feb-12 12:00N 37°57' E 022°56'0 0.1
2018-Feb-12 10:33N 37°57' E 022°56'0 0.0
2018-Feb-12 10:30N 37°57' E 022°56'0 0.0
2018-Feb-12 09:59N 37°57' E 022°56'0 0.0
2018-Feb-12 09:30N 37°57' E 022°56'0 0.0
2018-Feb-12 08:58N 37°57' E 022°56'0 0.0
2018-Feb-12 08:30N 37°57' E 022°56'0 0.0
2018-Feb-12 08:01N 37°57' E 022°56'0 0.0
2018-Feb-12 07:30N 37°57' E 022°56'0 0.0
2018-Feb-12 07:00N 37°57' E 022°56'0 0.0
2018-Feb-12 06:30N 37°57' E 022°56'0 0.1
2018-Feb-12 06:00N 37°57' E 022°56'0 0.1
2018-Feb-12 05:30N 37°57' E 022°56'1 1.1
2018-Feb-12 05:00N 37°57' E 022°56'1 1.0
2018-Feb-12 04:29N 37°57' E 022°56'0 0.0
2018-Feb-11 16:35N 37°57' E 022°56'0 0.0
2018-Feb-11 16:30N 37°57' E 022°56'3 6.0
2018-Feb-11 16:00N 37°58' E 022°52'7 0.3
2018-Feb-10 17:20N 38°01' E 022°45'2 6.3
2018-Feb-10 16:59N 37°60' E 022°48'4 7.5
2018-Feb-10 16:30N 37°58' E 022°52'4 7.5
2018-Feb-10 16:01N 37°57' E 022°56'0 0.4
2018-Feb-10 15:22N 37°57' E 022°56'0 0.0
2018-Feb-10 15:00N 37°57' E 022°56'0 0.0
2018-Feb-09 13:00N 37°57' E 022°56'0 0.0
2018-Feb-09 10:30N 37°57' E 022°56'0 0.1
2018-Feb-09 10:00N 37°57' E 022°56'0 0.1
2018-Feb-09 09:30N 37°57' E 022°56'0 0.0
2018-Feb-09 09:00N 37°57' E 022°56'  
Track history (hours):
 
Tides and Currents Weather Stations Pressure Air Temp Water Temp Dewpoint Dewpoint Depression Visibility Wind Speed Wind Dir Waves Ship Positions

Artemis Vi

Last reported at 2018-Feb-17 18:01 UTC. Time now 2018-Feb-22 05:22 UTC.
Position N 38°15' E 022°42'.

Length 28 m; draft 3 m.

Type: Tug. MMSI: 237036400.

Date/timePositionNaut miles runAvg speedWind from/ knotsBaromVisibWave heightAir tempDewpointWater temp
2018-Feb-17 18:01N 38°15' E 022°42'0 8.0
2018-Feb-17 17:58N 38°14' E 022°42'6 8.1
2018-Feb-17 17:17N 38°09' E 022°45'2 8.3
2018-Feb-17 17:01N 38°07' E 022°46'4 8.3
2018-Feb-17 16:30N 38°03' E 022°49'4 8.2
2018-Feb-17 16:00N 38°00' E 022°52'4 7.9
2018-Feb-17 15:31N 37°57' E 022°55'1 1.8
2018-Feb-17 15:00N 37°57' E 022°56'0 0.2
2018-Feb-17 14:30N 37°57' E 022°56'0 0.0
2018-Feb-17 09:22N 37°57' E 022°56'0 0.0
2018-Feb-17 09:00N 37°57' E 022°56'0 0.0
2018-Feb-17 08:30N 37°57' E 022°56'0 0.0
2018-Feb-17 08:00N 37°57' E 022°56'0 0.0
2018-Feb-17 07:30N 37°57' E 022°56'0 0.0
2018-Feb-17 07:00N 37°57' E 022°56'0 0.0
2018-Feb-17 06:30N 37°57' E 022°56'0 0.0
2018-Feb-17 06:00N 37°57' E 022°56'0 0.0
2018-Feb-17 05:30N 37°57' E 022°56'0 0.0
2018-Feb-17 05:00N 37°57' E 022°56'0 0.0
2018-Feb-17 04:30N 37°57' E 022°56'0 0.0
2018-Feb-17 04:00N 37°57' E 022°56'0 0.0
2018-Feb-17 03:30N 37°57' E 022°56'0 0.0
2018-Feb-17 03:00N 37°57' E 022°56'0 0.0
2018-Feb-17 02:30N 37°57' E 022°56'0 0.0
2018-Feb-17 02:00N 37°57' E 022°56'0 0.0
2018-Feb-17 01:30N 37°57' E 022°56'0 0.0
2018-Feb-17 01:00N 37°57' E 022°56'0 0.0
2018-Feb-17 00:30N 37°57' E 022°56'0 0.0
2018-Feb-17 00:00N 37°57' E 022°56'0 0.0
2018-Feb-16 23:30N 37°57' E 022°56'0 0.0
2018-Feb-16 23:00N 37°57' E 022°56'0 0.0
2018-Feb-16 22:30N 37°57' E 022°56'0 0.0
2018-Feb-16 22:00N 37°57' E 022°56'0 0.0
2018-Feb-16 21:30N 37°57' E 022°56'0 0.0
2018-Feb-16 21:00N 37°57' E 022°56'0 0.0
2018-Feb-16 20:30N 37°57' E 022°56'0 0.0
2018-Feb-16 20:00N 37°57' E 022°56'0 0.0
2018-Feb-16 19:30N 37°57' E 022°56'0 0.0
2018-Feb-16 19:00N 37°57' E 022°56'0 0.0
2018-Feb-16 18:30N 37°57' E 022°56'0 0.0
2018-Feb-16 18:00N 37°57' E 022°56'0 0.0
2018-Feb-16 17:30N 37°57' E 022°56'0 0.0
2018-Feb-16 17:00N 37°57' E 022°56'0 0.0
2018-Feb-16 16:30N 37°57' E 022°56'0 0.0
2018-Feb-16 16:00N 37°57' E 022°56'0 0.0
2018-Feb-16 15:30N 37°57' E 022°56'0 0.0
2018-Feb-16 15:00N 37°57' E 022°56'0 0.0
2018-Feb-16 14:30N 37°57' E 022°56'0 0.2
2018-Feb-16 14:00N 37°57' E 022°56'0 0.1
2018-Feb-16 13:30N 37°57' E 022°56'0 0.0
2018-Feb-14 17:23N 37°57' E 022°56'0 0.0
2018-Feb-14 17:00N 37°57' E 022°56'3 5.7
2018-Feb-14 16:31N 37°58' E 022°53'4 7.9
2018-Feb-14 16:01N 37°60' E 022°48'3 5.0
2018-Feb-14 15:27N 38°01' E 022°45'0 0.0
2018-Feb-14 14:09N 38°01' E 022°45'1 4.7
2018-Feb-14 13:58N 38°00' E 022°46'3 6.5
2018-Feb-14 13:30N 37°59' E 022°49'3 6.4
2018-Feb-14 13:01N 37°58' E 022°53'3 0.1
2018-Feb-13 14:36N 37°57' E 022°56'0 2.6
2018-Feb-13 14:30N 37°57' E 022°56'0 0.4
2018-Feb-13 14:00N 37°57' E 022°56'0 0.1
2018-Feb-13 12:47N 37°57' E 022°56'0 0.0
2018-Feb-13 12:30N 37°57' E 022°56'3 6.7
2018-Feb-13 12:00N 37°59' E 022°53'9 6.3
2018-Feb-13 10:31N 38°08' E 022°57'0 7.7
2018-Feb-13 10:30N 38°08' E 022°57'4 0.7
2018-Feb-13 05:14N 38°12' E 022°59'1 0.1
2018-Feb-12 19:48N 38°12' E 022°58'2 6.0
2018-Feb-12 19:29N 38°11' E 022°57'6 7.3
2018-Feb-12 18:43N 38°06' E 022°52'3 7.3
2018-Feb-12 18:18N 38°05' E 022°49'2 6.9
2018-Feb-12 18:00N 38°03' E 022°47'3 5.2
2018-Feb-12 17:30N 38°01' E 022°45'0 0.0
2018-Feb-12 17:00N 38°01' E 022°45'1 1.2
2018-Feb-12 16:21N 38°01' E 022°46'1 2.1
2018-Feb-12 16:00N 38°01' E 022°45'3 6.1
2018-Feb-12 15:31N 37°60' E 022°49'3 6.9
2018-Feb-12 15:00N 37°58' E 022°52'3 6.5
2018-Feb-12 14:31N 37°57' E 022°56'0 0.2
2018-Feb-12 14:00N 37°57' E 022°56'1 1.6
2018-Feb-12 13:30N 37°57' E 022°56'1 1.4
2018-Feb-12 13:00N 37°57' E 022°56'0 0.0
2018-Feb-12 12:30N 37°57' E 022°56'0 0.0
2018-Feb-12 12:00N 37°57' E 022°56'0 0.1
2018-Feb-12 10:33N 37°57' E 022°56'0 0.0
2018-Feb-12 10:30N 37°57' E 022°56'0 0.0
2018-Feb-12 09:59N 37°57' E 022°56'0 0.0
2018-Feb-12 09:30N 37°57' E 022°56'0 0.0
2018-Feb-12 08:58N 37°57' E 022°56'0 0.0
2018-Feb-12 08:30N 37°57' E 022°56'0 0.0
2018-Feb-12 08:01N 37°57' E 022°56'0 0.0
2018-Feb-12 07:30N 37°57' E 022°56'0 0.0
2018-Feb-12 07:00N 37°57' E 022°56'0 0.0
2018-Feb-12 06:30N 37°57' E 022°56'0 0.1
2018-Feb-12 06:00N 37°57' E 022°56'0 0.1
2018-Feb-12 05:30N 37°57' E 022°56'1 1.1
2018-Feb-12 05:00N 37°57' E 022°56'1 1.0
2018-Feb-12 04:29N 37°57' E 022°56'0 0.0
2018-Feb-11 16:35N 37°57' E 022°56'0 0.0
2018-Feb-11 16:30N 37°57' E 022°56'3 6.0
2018-Feb-11 16:00N 37°58' E 022°52'7 0.3
2018-Feb-10 17:20N 38°01' E 022°45'2 6.3
2018-Feb-10 16:59N 37°60' E 022°48'4 7.5
2018-Feb-10 16:30N 37°58' E 022°52'4 7.5
2018-Feb-10 16:01N 37°57' E 022°56'0 0.4
2018-Feb-10 15:22N 37°57' E 022°56'0 0.0
2018-Feb-10 15:00N 37°57' E 022°56'0 0.0
2018-Feb-09 13:00N 37°57' E 022°56'0 0.0
2018-Feb-09 10:30N 37°57' E 022°56'0 0.1
2018-Feb-09 10:00N 37°57' E 022°56'0 0.1
2018-Feb-09 09:30N 37°57' E 022°56'0 0.0
2018-Feb-09 09:00N 37°57' E 022°56'  

Dump ship's entire track history